createdAt,value
2017-11-13T00:01:03.730Z,4.22
2017-11-13T00:03:31.205Z,3.42
2017-11-13T00:05:58.765Z,3.53
2017-11-13T00:08:26.983Z,3.33
2017-11-13T00:10:54.558Z,3.80
2017-11-13T00:13:22.010Z,3.40
2017-11-13T00:15:50.254Z,3.60
2017-11-13T00:18:17.797Z,3.45
2017-11-13T00:20:45.342Z,3.70
2017-11-13T00:23:13.089Z,3.47
2017-11-13T00:25:40.634Z,4.10
2017-11-13T00:28:08.178Z,4.55
2017-11-13T00:30:35.629Z,4.37
2017-11-13T00:33:03.852Z,4.30
2017-11-13T00:35:31.421Z,5.35
2017-11-13T00:37:58.966Z,4.32
2017-11-13T00:40:26.418Z,4.15
2017-11-13T00:42:54.673Z,4.20
2017-11-13T00:45:22.894Z,4.05
2017-11-13T00:47:50.377Z,4.10
2017-11-13T00:50:18.610Z,4.93
2017-11-13T00:52:46.173Z,3.80
2017-11-13T00:55:13.635Z,3.85
2017-11-13T00:57:41.165Z,4.25
2017-11-13T01:00:09.417Z,3.75
2017-11-13T01:02:36.963Z,3.95
2017-11-13T01:05:05.216Z,4.85
2017-11-13T01:07:32.761Z,4.30
2017-11-13T01:10:00.213Z,3.75
2017-11-13T01:12:28.466Z,3.47
2017-11-13T01:14:56.725Z,4.22
2017-11-13T01:17:24.948Z,3.15
2017-11-13T01:19:52.434Z,2.97
2017-11-13T01:22:20.658Z,3.78
2017-11-13T01:24:48.130Z,2.92
2017-11-13T01:27:15.673Z,3.55
2017-11-13T01:29:43.243Z,3.08
2017-11-13T01:32:10.765Z,2.67
2017-11-13T01:34:38.990Z,2.92
2017-11-13T01:37:06.457Z,3.60
2017-11-13T01:39:34.002Z,2.85
2017-11-13T01:42:01.461Z,3.33
2017-11-13T01:44:29.706Z,2.78
2017-11-13T01:46:57.245Z,2.70
2017-11-13T01:49:24.702Z,2.97
2017-11-13T01:51:53.005Z,2.78
2017-11-13T01:54:20.499Z,2.65
2017-11-13T01:56:47.945Z,2.53
2017-11-13T01:59:16.198Z,2.75
2017-11-13T02:01:44.421Z,2.55
2017-11-13T02:04:11.869Z,2.45
2017-11-13T02:06:39.338Z,2.20
2017-11-13T02:09:07.449Z,2.33
2017-11-13T02:11:34.938Z,2.15
2017-11-13T02:14:03.182Z,2.00
2017-11-13T02:16:30.630Z,1.87
2017-11-13T02:18:58.178Z,2.22
2017-11-13T02:21:25.638Z,2.37
2017-11-13T02:23:53.857Z,1.90
2017-11-13T02:26:21.317Z,1.75
2017-11-13T02:28:48.869Z,1.95
2017-11-13T02:31:17.126Z,1.80
2017-11-13T02:33:44.678Z,1.73
2017-11-13T02:36:12.891Z,2.05
2017-11-13T02:38:40.371Z,2.53
2017-11-13T02:41:07.914Z,2.12
2017-11-13T02:43:35.370Z,1.50
2017-11-13T02:46:03.620Z,2.08
2017-11-13T02:48:31.881Z,1.50
2017-11-13T02:50:59.421Z,1.67
2017-11-13T02:53:27.639Z,2.00
2017-11-13T02:55:55.097Z,1.48
2017-11-13T02:58:22.620Z,1.30
2017-11-13T03:00:50.094Z,1.60
2017-11-13T03:03:17.542Z,1.45
2017-11-13T03:05:45.089Z,1.70
2017-11-13T03:08:12.635Z,1.45
2017-11-13T03:10:40.896Z,1.67
2017-11-13T03:13:08.370Z,1.30
2017-11-13T03:15:35.833Z,1.75
2017-11-13T03:18:03.283Z,2.10
2017-11-13T03:20:30.762Z,1.40
2017-11-13T03:22:58.218Z,1.40
2017-11-13T03:25:26.441Z,1.52
2017-11-13T03:27:53.901Z,1.87
2017-11-13T03:30:21.376Z,1.30
2017-11-13T03:32:48.900Z,1.27
2017-11-13T03:35:17.123Z,1.77
2017-11-13T03:37:44.689Z,1.40
2017-11-13T03:40:12.134Z,1.37
2017-11-13T03:42:39.582Z,1.25
2017-11-13T03:45:07.837Z,1.20
2017-11-13T03:47:36.053Z,2.12
2017-11-13T03:50:03.535Z,1.67
2017-11-13T03:52:31.010Z,1.95
2017-11-13T03:54:58.462Z,1.50
2017-11-13T03:57:25.958Z,1.50
2017-11-13T03:59:53.423Z,1.60
2017-11-13T04:02:21.637Z,1.65
2017-11-13T04:04:49.094Z,1.62
2017-11-13T04:07:16.547Z,1.95
2017-11-13T04:09:44.794Z,1.50
2017-11-13T04:12:12.248Z,1.85
2017-11-13T04:14:39.697Z,2.03
2017-11-13T04:17:07.943Z,3.17
2017-11-13T04:19:35.393Z,1.77
2017-11-13T04:22:03.609Z,2.30
2017-11-13T04:24:31.152Z,1.80
2017-11-13T04:26:58.614Z,2.47
2017-11-13T04:29:26.173Z,2.25
2017-11-13T04:31:53.717Z,2.58
2017-11-13T04:34:21.266Z,2.00
2017-11-13T04:36:48.730Z,3.12
2017-11-13T04:39:16.201Z,2.40
2017-11-13T04:41:43.742Z,1.90
2017-11-13T04:44:11.239Z,2.60
2017-11-13T04:46:39.493Z,2.33
2017-11-13T04:49:07.039Z,3.45
2017-11-13T04:51:35.265Z,2.72
2017-11-13T04:54:02.749Z,1.95
2017-11-13T04:56:30.986Z,1.98
2017-11-13T04:58:58.449Z,2.62
2017-11-13T05:01:26.706Z,2.75
2017-11-13T05:03:54.974Z,2.45
2017-11-13T05:06:23.221Z,2.35
2017-11-13T05:08:51.583Z,2.05
2017-11-13T05:11:19.054Z,2.62
2017-11-13T05:13:46.565Z,1.90
2017-11-13T05:16:14.023Z,2.08
2017-11-13T05:18:42.645Z,2.72
2017-11-13T05:21:10.090Z,2.53
2017-11-13T05:23:37.575Z,2.83
2017-11-13T05:26:05.824Z,2.65
2017-11-13T05:28:34.056Z,2.65
2017-11-13T05:31:01.516Z,2.62
2017-11-13T05:33:28.966Z,2.00
2017-11-13T05:35:57.226Z,2.17
2017-11-13T05:38:25.446Z,2.90
2017-11-13T05:40:52.919Z,2.50
2017-11-13T05:43:20.405Z,2.33
2017-11-13T05:45:47.854Z,2.70
2017-11-13T05:48:15.410Z,3.05
2017-11-13T05:50:42.878Z,1.98
2017-11-13T05:53:10.340Z,2.40
2017-11-13T05:55:38.694Z,2.42
2017-11-13T05:58:06.236Z,2.05
2017-11-13T06:00:33.782Z,2.70
2017-11-13T06:03:01.257Z,2.20
2017-11-13T06:05:28.768Z,3.05
2017-11-13T06:07:57.030Z,2.37
2017-11-13T06:10:25.288Z,2.87
2017-11-13T06:12:52.829Z,2.40
2017-11-13T06:15:21.095Z,1.87
2017-11-13T06:17:48.549Z,1.77
2017-11-13T06:20:16.769Z,2.08
2017-11-13T06:22:44.238Z,2.15
2017-11-13T06:25:12.498Z,2.50
2017-11-13T06:27:40.857Z,2.37
2017-11-13T06:30:08.398Z,2.17
2017-11-13T06:32:35.857Z,2.70
2017-11-13T06:35:04.101Z,2.65
2017-11-13T06:37:31.553Z,2.53
2017-11-13T06:39:59.789Z,2.40
2017-11-13T06:42:27.257Z,3.42
2017-11-13T06:44:55.487Z,2.85
2017-11-13T06:47:23.045Z,2.60
2017-11-13T06:49:50.589Z,3.17
2017-11-13T06:52:18.053Z,2.15
2017-11-13T06:54:46.398Z,2.60
2017-11-13T06:57:13.849Z,2.40
2017-11-13T06:59:42.097Z,2.55
2017-11-13T07:02:09.590Z,2.33
2017-11-13T07:04:37.043Z,3.58
2017-11-13T07:07:04.521Z,2.58
2017-11-13T07:09:32.083Z,2.78
2017-11-13T07:12:00.297Z,2.60
2017-11-13T07:14:27.765Z,2.30
2017-11-13T07:16:55.243Z,2.90
2017-11-13T07:19:22.702Z,3.40
2017-11-13T07:21:50.157Z,2.60
2017-11-13T07:24:17.638Z,2.53
2017-11-13T07:26:45.858Z,3.80
2017-11-13T07:29:13.318Z,2.75
2017-11-13T07:31:40.797Z,3.67
2017-11-13T07:34:09.928Z,3.08
2017-11-13T07:36:37.381Z,3.53
2017-11-13T07:39:04.945Z,3.00
2017-11-13T07:41:33.306Z,2.83
2017-11-13T07:44:00.851Z,3.00
2017-11-13T07:46:29.108Z,2.70
2017-11-13T07:48:57.370Z,3.03
2017-11-13T07:51:25.630Z,2.15
2017-11-13T07:53:53.893Z,2.83
2017-11-13T07:56:21.538Z,3.03
2017-11-13T07:58:49.077Z,2.35
2017-11-13T08:01:16.626Z,3.47
2017-11-13T08:03:44.890Z,3.60
2017-11-13T08:06:13.145Z,2.45
2017-11-13T08:08:40.685Z,3.08
2017-11-13T08:11:08.230Z,2.83
2017-11-13T08:13:35.781Z,3.10
2017-11-13T08:16:04.040Z,3.00
2017-11-13T08:18:32.266Z,2.70
2017-11-13T08:20:59.734Z,2.50
2017-11-13T08:23:27.202Z,3.37
2017-11-13T08:25:54.721Z,3.05
2017-11-13T08:28:22.265Z,3.20
2017-11-13T08:30:50.507Z,2.90
2017-11-13T08:33:17.953Z,2.55
2017-11-13T08:35:45.411Z,3.20
2017-11-13T08:38:13.638Z,4.18
2017-11-13T08:40:41.126Z,3.53
2017-11-13T08:43:08.649Z,2.87
2017-11-13T08:45:36.102Z,2.80
2017-11-13T08:48:04.353Z,2.80
2017-11-13T08:50:32.577Z,3.05
2017-11-13T08:53:00.050Z,2.45
2017-11-13T08:55:28.314Z,4.00
2017-11-13T08:57:55.781Z,3.30
2017-11-13T09:00:23.234Z,2.80
2017-11-13T09:02:50.685Z,2.85
2017-11-13T09:05:18.154Z,3.40
2017-11-13T09:07:45.605Z,2.97
2017-11-13T09:10:13.057Z,3.08
2017-11-13T09:12:40.526Z,3.00
2017-11-13T09:15:08.002Z,3.17
2017-11-13T09:17:35.453Z,3.00
2017-11-13T09:20:02.939Z,2.85
2017-11-13T09:22:31.294Z,2.40
2017-11-13T09:24:58.829Z,3.67
2017-11-13T09:27:26.310Z,4.37
2017-11-13T09:29:53.925Z,3.08
2017-11-13T09:32:21.565Z,3.30
2017-11-13T09:34:49.057Z,2.90
2017-11-13T09:37:16.519Z,3.05
2017-11-13T09:39:44.022Z,3.05
2017-11-13T09:42:11.513Z,3.25
2017-11-13T09:44:38.962Z,2.45
2017-11-13T09:47:06.414Z,2.80
2017-11-13T09:49:33.874Z,4.00
2017-11-13T09:52:02.106Z,2.97
2017-11-13T09:54:29.557Z,4.28
2017-11-13T09:56:57.009Z,3.25
2017-11-13T09:59:25.237Z,3.00
2017-11-13T10:01:52.729Z,3.90
2017-11-13T10:04:20.190Z,4.20
2017-11-13T10:06:47.642Z,2.45
2017-11-13T10:09:15.139Z,2.40
2017-11-13T10:11:43.399Z,2.78
2017-11-13T10:14:11.614Z,2.80
2017-11-13T10:16:39.069Z,2.60
2017-11-13T10:19:06.526Z,2.90
2017-11-13T10:21:35.686Z,3.12
2017-11-13T10:24:03.157Z,3.05
2017-11-13T10:26:31.384Z,2.75
2017-11-13T10:28:58.833Z,2.35
2017-11-13T10:31:26.293Z,2.33
2017-11-13T10:33:53.749Z,2.70
2017-11-13T10:36:22.002Z,4.40
2017-11-13T10:38:50.218Z,3.35
2017-11-13T10:41:17.670Z,2.72
2017-11-13T10:43:45.139Z,3.33
2017-11-13T10:46:13.366Z,3.25
2017-11-13T10:48:40.842Z,3.47
2017-11-13T10:51:09.105Z,2.30
2017-11-13T10:53:36.553Z,3.00
2017-11-13T10:56:04.811Z,2.78
2017-11-13T10:58:32.286Z,2.17
2017-11-13T11:00:59.745Z,2.95
2017-11-13T11:03:27.233Z,2.42
2017-11-13T11:05:55.455Z,2.70
2017-11-13T11:08:22.914Z,2.55
2017-11-13T11:10:50.390Z,2.40
2017-11-13T11:13:21.116Z,3.10
2017-11-13T11:15:51.254Z,2.87
2017-11-13T11:18:21.317Z,3.30
2017-11-13T11:20:48.778Z,3.07
2017-11-13T11:23:18.102Z,2.70
2017-11-13T11:25:50.242Z,2.90
2017-11-13T11:28:33.374Z,2.57
2017-11-13T11:33:59.466Z,2.80
2017-11-13T11:36:32.510Z,2.33
2017-11-13T11:38:59.977Z,3.00
2017-11-13T11:41:27.440Z,2.87
2017-11-13T11:43:56.581Z,2.90
2017-11-13T11:46:24.029Z,2.40
2017-11-13T11:49:08.306Z,2.90
2017-11-13T11:51:35.758Z,2.43
2017-11-13T11:54:13.146Z,2.80
2017-11-13T11:59:45.977Z,2.53
2017-11-13T12:02:13.678Z,3.10
2017-11-13T12:04:41.166Z,3.07
2017-11-13T12:07:09.397Z,3.50
2017-11-13T12:09:36.969Z,2.50
2017-11-13T12:12:05.205Z,3.00
2017-11-13T12:14:32.778Z,2.77
2017-11-13T12:17:01.035Z,3.13
2017-11-13T12:19:29.397Z,2.50
2017-11-13T12:21:57.654Z,3.20
2017-11-13T12:24:25.894Z,2.80
2017-11-13T12:26:53.462Z,3.03
2017-11-13T12:29:21.922Z,2.40
2017-11-13T12:31:50.161Z,3.27
2017-11-13T12:34:17.729Z,2.80
2017-11-13T12:36:45.223Z,2.87
2017-11-13T12:39:12.686Z,2.50
2017-11-13T12:41:40.152Z,2.30
2017-11-13T12:44:08.417Z,3.10
2017-11-13T12:46:36.678Z,2.73
2017-11-13T12:49:04.177Z,3.30
2017-11-13T12:51:31.662Z,2.50
2017-11-13T12:53:59.901Z,2.90
2017-11-13T12:56:27.464Z,3.95
2017-11-13T12:58:55.702Z,2.60
2017-11-13T13:01:23.184Z,2.72
2017-11-13T13:03:50.668Z,3.07
2017-11-13T13:06:18.929Z,3.47
2017-11-13T13:08:47.166Z,3.57
2017-11-13T13:11:14.735Z,1.90
2017-11-13T13:13:43.007Z,2.63
2017-11-13T13:16:11.230Z,2.30
2017-11-13T13:18:38.810Z,3.27
2017-11-13T13:21:07.046Z,3.33
2017-11-13T13:23:34.510Z,3.30
2017-11-13T13:26:02.759Z,2.30
2017-11-13T13:28:30.994Z,2.37
2017-11-13T13:30:58.461Z,2.63
2017-11-13T13:33:26.726Z,2.30
2017-11-13T13:35:54.983Z,2.83
2017-11-13T13:38:23.215Z,2.47
2017-11-13T13:40:50.700Z,2.53
2017-11-13T13:43:18.161Z,2.37
2017-11-13T13:45:45.622Z,2.53
2017-11-13T13:48:13.091Z,2.40
2017-11-13T13:50:40.649Z,2.73
2017-11-13T13:53:08.897Z,2.20
2017-11-13T13:55:36.363Z,3.00
2017-11-13T13:58:04.590Z,2.23
2017-11-13T14:00:32.053Z,2.10
2017-11-13T14:03:00.317Z,2.17
2017-11-13T14:05:28.545Z,2.60
2017-11-13T14:07:56.002Z,2.80
2017-11-13T14:10:24.984Z,2.50
2017-11-13T14:12:52.442Z,2.83
2017-11-13T14:15:20.710Z,2.57
2017-11-13T14:17:48.958Z,2.57
2017-11-13T14:20:17.208Z,2.10
2017-11-13T14:22:44.774Z,3.47
2017-11-13T14:25:13.028Z,2.43
2017-11-13T14:27:41.281Z,2.63
2017-11-13T14:30:09.517Z,2.60
2017-11-13T14:32:37.014Z,2.40
2017-11-13T14:35:04.473Z,2.77
2017-11-13T14:37:31.937Z,2.57
2017-11-13T14:39:59.438Z,2.37
2017-11-13T14:42:26.910Z,2.10
2017-11-13T14:44:54.405Z,3.17
2017-11-13T14:47:22.643Z,2.50
2017-11-13T14:49:50.869Z,2.53
2017-11-13T14:52:18.386Z,3.17
2017-11-13T14:54:45.850Z,2.60
2017-11-13T14:57:13.336Z,2.47
2017-11-13T14:59:41.597Z,2.50
2017-11-13T15:02:09.865Z,2.70
2017-11-13T15:04:38.096Z,2.10
2017-11-13T15:07:05.562Z,2.53
2017-11-13T15:09:33.794Z,2.20
2017-11-13T15:12:01.379Z,2.20
2017-11-13T15:14:29.629Z,2.53
2017-11-13T15:16:57.885Z,2.55
2017-11-13T15:19:26.150Z,2.17
2017-11-13T15:21:54.394Z,2.90
2017-11-13T15:24:21.865Z,2.62
2017-11-13T15:26:49.346Z,2.45
2017-11-13T15:29:16.802Z,2.95
2017-11-13T15:31:44.277Z,2.37
2017-11-13T15:34:12.524Z,2.65
2017-11-13T15:36:39.991Z,2.17
2017-11-13T15:39:08.234Z,2.55
2017-11-13T15:41:36.469Z,2.60
2017-11-13T15:44:04.042Z,2.90
2017-11-13T15:46:32.401Z,2.65
2017-11-13T15:49:00.626Z,2.75
2017-11-13T15:51:28.095Z,3.20
2017-11-13T15:53:55.649Z,2.92
2017-11-13T15:56:23.889Z,2.83
2017-11-13T15:58:51.357Z,3.35
2017-11-13T16:01:19.592Z,2.80
2017-11-13T16:03:47.049Z,2.70
2017-11-13T16:06:14.562Z,2.53
2017-11-13T16:08:42.799Z,2.67
2017-11-13T16:11:10.319Z,2.28
2017-11-13T16:13:37.801Z,3.22
2017-11-13T16:16:06.061Z,3.92
2017-11-13T16:18:34.307Z,3.12
2017-11-13T16:21:01.765Z,3.80
2017-11-13T16:23:30.026Z,3.15
2017-11-13T16:25:58.294Z,3.65
2017-11-13T16:28:26.526Z,3.00
2017-11-13T16:30:53.989Z,3.20
2017-11-13T16:33:22.230Z,2.80
2017-11-13T16:35:49.790Z,2.75
2017-11-13T16:38:18.013Z,3.40
2017-11-13T16:40:45.490Z,3.00
2017-11-13T16:43:13.714Z,2.78
2017-11-13T16:45:41.293Z,3.05
2017-11-13T16:48:09.528Z,3.87
2017-11-13T16:50:36.996Z,3.95
2017-11-13T16:53:05.238Z,4.12
2017-11-13T16:55:32.800Z,3.60
2017-11-13T16:58:01.057Z,3.75
2017-11-13T17:00:29.297Z,2.75
2017-11-13T17:02:57.553Z,2.78
2017-11-13T17:05:25.773Z,3.20
2017-11-13T17:07:53.261Z,3.12
2017-11-13T17:10:21.481Z,3.72
2017-11-13T17:12:49.060Z,3.62
2017-11-13T17:15:17.296Z,3.50
2017-11-13T17:17:44.881Z,3.90
2017-11-13T17:20:13.126Z,3.33
2017-11-13T17:22:41.391Z,3.47
2017-11-13T17:25:09.623Z,4.53
2017-11-13T17:27:37.074Z,3.60
2017-11-13T17:30:04.634Z,4.28
2017-11-13T17:32:32.989Z,3.50
2017-11-13T17:35:01.214Z,4.00
2017-11-13T17:37:28.706Z,3.55
2017-11-13T17:39:56.937Z,4.03
2017-11-13T17:42:24.393Z,3.60
2017-11-13T17:44:52.638Z,3.60
2017-11-13T17:47:20.097Z,3.87
2017-11-13T17:49:48.325Z,3.00
2017-11-13T17:52:15.897Z,4.95
2017-11-13T17:54:44.123Z,4.22
2017-11-13T17:57:11.587Z,4.72
2017-11-13T17:59:39.141Z,3.40
2017-11-13T18:02:07.373Z,3.60
2017-11-13T18:04:34.889Z,5.00
2017-11-13T18:07:03.141Z,4.57
2017-11-13T18:09:31.362Z,3.87
2017-11-13T18:11:58.825Z,3.95
2017-11-13T18:14:26.284Z,3.20
2017-11-13T18:16:54.541Z,4.10
2017-11-13T18:19:22.781Z,4.20
2017-11-13T18:21:50.237Z,3.75
2017-11-13T18:24:17.784Z,5.05
2017-11-13T18:26:46.004Z,3.83
2017-11-13T18:29:13.590Z,4.47
2017-11-13T18:31:41.850Z,3.53
2017-11-13T18:34:10.109Z,3.70
2017-11-13T18:36:38.373Z,3.50
2017-11-13T18:39:06.604Z,4.40
2017-11-13T18:41:34.084Z,4.28
2017-11-13T18:44:02.434Z,5.32
2017-11-13T18:46:30.694Z,4.28
2017-11-13T18:48:58.957Z,4.40
2017-11-13T18:51:27.210Z,4.57
2017-11-13T18:53:54.669Z,4.40
2017-11-13T18:56:22.913Z,3.72
2017-11-13T18:58:51.157Z,3.90
2017-11-13T19:01:18.618Z,3.83
2017-11-13T19:03:46.877Z,5.03
2017-11-13T19:06:15.141Z,5.82
2017-11-13T19:08:43.409Z,5.45
2017-11-13T19:11:11.633Z,6.05
2017-11-13T19:13:39.087Z,5.80
2017-11-13T19:16:06.564Z,4.85
2017-11-13T19:18:34.141Z,7.25
2017-11-13T19:21:01.609Z,5.00
2017-11-13T19:23:29.066Z,6.22
2017-11-13T19:25:56.531Z,8.40
2017-11-13T19:28:24.051Z,6.07
2017-11-13T19:30:52.286Z,4.95
2017-11-13T19:33:19.740Z,4.35
2017-11-13T19:35:47.226Z,4.93
2017-11-13T19:38:14.690Z,4.75
2017-11-13T19:40:42.156Z,5.05
2017-11-13T19:43:09.661Z,4.10
2017-11-13T19:45:37.214Z,4.78
2017-11-13T19:48:04.838Z,18.77
2017-11-13T19:50:32.512Z,4.47
2017-11-13T19:53:00.181Z,3.85
2017-11-13T19:55:27.933Z,3.75
2017-11-13T19:57:56.576Z,4.18
2017-11-13T20:00:24.396Z,4.00
2017-11-13T20:02:52.277Z,4.00
2017-11-13T20:05:20.126Z,4.40
2017-11-13T20:07:47.977Z,4.00
2017-11-13T20:10:15.857Z,4.22
2017-11-13T20:12:44.313Z,4.30
2017-11-13T20:15:12.821Z,4.53
2017-11-13T20:17:40.423Z,5.45
2017-11-13T20:20:07.961Z,4.53
2017-11-13T20:22:35.655Z,4.80
2017-11-13T20:25:03.240Z,4.22
2017-11-13T20:27:30.804Z,5.30
2017-11-13T20:29:58.281Z,4.75
2017-11-13T20:32:26.549Z,4.65
2017-11-13T20:34:54.090Z,4.60
2017-11-13T20:37:22.335Z,4.07
2017-11-13T20:39:50.577Z,4.60
2017-11-13T20:42:18.070Z,5.95
2017-11-13T20:44:45.686Z,4.78
2017-11-13T20:47:13.926Z,4.82
2017-11-13T20:49:41.382Z,5.07
2017-11-13T20:52:08.841Z,6.00
2017-11-13T20:54:37.094Z,6.20
2017-11-13T20:57:05.354Z,5.00
2017-11-13T20:59:33.576Z,6.97
2017-11-13T21:02:01.037Z,4.97
2017-11-13T21:04:28.593Z,6.00
2017-11-13T21:06:56.949Z,6.75
2017-11-13T21:09:25.251Z,5.75
2017-11-13T21:11:52.714Z,5.50
2017-11-13T21:14:20.304Z,6.70
2017-11-13T21:16:48.534Z,5.80
2017-11-13T21:19:15.994Z,5.30
2017-11-13T21:21:43.457Z,5.82
2017-11-13T21:24:11.812Z,4.87
2017-11-13T21:26:40.046Z,7.22
2017-11-13T21:29:07.610Z,6.05
2017-11-13T21:31:35.869Z,4.93
2017-11-13T21:34:04.094Z,5.55
2017-11-13T21:36:31.584Z,6.60
2017-11-13T21:38:59.813Z,5.82
2017-11-13T21:41:27.381Z,5.87
2017-11-13T21:43:55.690Z,4.75
2017-11-13T21:46:23.145Z,5.78
2017-11-13T21:48:50.636Z,4.90
2017-11-13T21:51:18.192Z,5.60
2017-11-13T21:53:45.657Z,5.62
2017-11-13T21:56:13.122Z,5.47
2017-11-13T21:58:40.589Z,5.87
2017-11-13T22:01:08.854Z,5.25
2017-11-13T22:03:37.096Z,5.78
2017-11-13T22:06:04.655Z,5.35
2017-11-13T22:08:32.882Z,6.15
2017-11-13T22:11:00.367Z,5.90
2017-11-13T22:13:28.713Z,6.30
2017-11-13T22:15:56.946Z,6.00
2017-11-13T22:18:24.413Z,6.68
2017-11-13T22:20:51.945Z,7.10
2017-11-13T22:23:19.405Z,6.15
2017-11-13T22:25:47.656Z,6.10
2017-11-13T22:28:15.901Z,6.50
2017-11-13T22:30:43.361Z,6.78
2017-11-13T22:33:10.826Z,5.65
2017-11-13T22:35:38.349Z,6.22
2017-11-13T22:38:06.613Z,6.82
2017-11-13T22:40:34.873Z,6.03
2017-11-13T22:43:03.133Z,5.43
2017-11-13T22:45:31.349Z,6.87
2017-11-13T22:47:58.829Z,6.55
2017-11-13T22:50:27.053Z,6.15
2017-11-13T22:52:54.973Z,7.57
2017-11-13T22:55:22.441Z,6.78
2017-11-13T22:57:49.914Z,5.05
2017-11-13T23:00:17.369Z,6.25
2017-11-13T23:02:45.621Z,6.22
2017-11-13T23:05:13.085Z,5.82
2017-11-13T23:07:41.439Z,6.60
2017-11-13T23:10:09.663Z,6.28
2017-11-13T23:12:37.153Z,6.03
2017-11-13T23:15:05.369Z,5.60
2017-11-13T23:17:32.940Z,5.93
2017-11-13T23:20:01.203Z,5.87
2017-11-13T23:22:29.422Z,7.18
2017-11-13T23:24:56.881Z,6.37
2017-11-13T23:27:24.341Z,6.50
2017-11-13T23:29:52.601Z,7.37
2017-11-13T23:32:20.837Z,5.55
2017-11-13T23:34:48.401Z,6.25
2017-11-13T23:37:15.873Z,7.35
2017-11-13T23:39:43.390Z,6.20
2017-11-13T23:42:11.617Z,5.82
2017-11-13T23:44:39.081Z,6.00
2017-11-13T23:47:06.546Z,6.55
2017-11-13T23:49:34.812Z,7.45
2017-11-13T23:52:02.277Z,7.00
2017-11-13T23:54:35.753Z,5.70
2017-11-13T23:57:03.256Z,8.07
2017-11-13T23:59:31.618Z,6.50
